Flight Track Log - Related Links

Times and Time Zones

All times are in EDT time to prevent confusion due to time zone crossing. See the ASA183 flight status page for this flight to view local times or setup timezone preferences in your user account.

Time Position Orientation Groundspeed Altitude Reporting Facility
EDT Latitude Longitude Course Direction KTS MPH feet Rate Location/Type
Mon 03:06:40 PM 61.3000 -150.1667 12° North 270 311 6,400  Level Anchorage Center
Mon 03:07:40 PM 61.3833 -150.1167 16° North 270 311 9,500 2,529 Climbing Anchorage Center
Mon 03:08:41 PM 61.4667 -150.0833 11° North 310 357 11,500 2,750 Climbing Anchorage Center
Mon 03:09:40 PM 61.5500 -150.0167 21° North 340 391 15,000 3,126 Climbing Anchorage Center
Mon 03:10:00 PM 61.7865 -149.7094 12° North  Level FlightAware
Mon 03:10:40 PM 61.6500 -149.9667 13° North 370 426 17,700  Level Anchorage Center
Mon 03:11:00 PM 61.8899 -149.6627 12° North  Level FlightAware
Mon 03:11:41 PM 61.7500 -149.9167 13° North 360 414 20,700  Level Anchorage Center
Mon 03:12:00 PM 61.9931 -149.6157 12° North  Level FlightAware
Mon 03:12:41 PM 61.8500 -149.8667 13° North 370 426 23,000  Level Anchorage Center
Mon 03:13:41 PM 61.9500 -149.9500 339° North 390 449 23,000  Level Anchorage Center
Mon 03:14:41 PM 62.0667 -150.0667 335° Northwest 420 483 23,000  Level Anchorage Center
Mon 03:15:41 PM 62.1667 -150.1833 331° Northwest 430 495 23,000  Level Anchorage Center
Mon 03:16:41 PM 62.2833 -150.3000 335° Northwest 450 518 23,000  Level Anchorage Center
Mon 03:17:41 PM 62.4000 -150.4167 335° Northwest 440 506 23,000  Level Anchorage Center
Mon 03:18:41 PM 62.5000 -150.5333 332° Northwest 440 506 23,000  Level Anchorage Center
Mon 03:19:41 PM 62.6000 -150.6500 332° Northwest 420 483 23,000  Level Anchorage Center
Mon 03:20:42 PM 62.7167 -150.7833 332° Northwest 460 529 23,000  Level Anchorage Center
Mon 03:21:42 PM 62.8167 -150.8833 335° Northwest 410 472 23,000  Level Anchorage Center
Mon 03:22:42 PM 62.9167 -150.9667 339° North 350 403 23,000  Level Anchorage Center
Mon 03:23:42 PM 62.9833 -151.0667 326° Northwest 290 334 23,000  Level Anchorage Center
Mon 03:24:42 PM 63.0667 -151.1333 340° North 300 345 23,000  Level Anchorage Center
Mon 03:25:42 PM 63.1333 -151.0333 34° Northeast 310 357 23,000  Level Anchorage Center
Mon 03:26:42 PM 63.2167 -150.9167 32° Northeast 370 426 23,000  Level Anchorage Center
Mon 03:27:42 PM 63.3167 -150.7667 34° Northeast 420 483 23,000  Level Anchorage Center
Mon 03:28:42 PM 63.4167 -150.6333 31° Northeast 420 483 23,000  Level Anchorage Center
Mon 03:29:43 PM 63.5167 -150.5000 31° Northeast 420 483 23,000  Level Anchorage Center
Mon 03:30:43 PM 63.6167 -150.3667 31° Northeast 410 472 23,000  Level Anchorage Center
Mon 03:31:43 PM 63.7167 -150.2500 27° Northeast 420 483 23,000  Level Anchorage Center
Mon 03:32:43 PM 63.8333 -150.1000 30° Northeast 420 483 23,000  Level Anchorage Center
Mon 03:33:43 PM 63.9333 -149.9667 30° Northeast 420 483 23,000  Level Anchorage Center
Mon 03:34:43 PM 64.0333 -149.8333 30° Northeast 420 483 23,000 -50 Level Anchorage Center
Mon 03:35:43 PM 64.1167 -149.6667 41° Northeast 410 472 22,900 -1,983 Descending Anchorage Center
Mon 03:36:44 PM 64.1833 -149.4667 53° Northeast 410 472 19,000 -3,250 Descending Anchorage Center
Mon 03:37:43 PM 64.2667 -149.2833 44° Northeast 400 460 16,400 -2,644 Descending Anchorage Center
Mon 03:39:00 PM 64.3507 -149.0636 48° Northeast  Level FlightAware
Mon 03:46:00 PM 64.8000 -147.8500 49° Northeast  Level FlightAware
Mon 03:47:00 PM 64.8151 -147.8564 49° Northeast  Level Estimated
Mon 03:48:00 PM 64.8151 -147.8564 49° Northeast  Level Estimated
Mon 03:49:00 PM 64.8151 -147.8564 49° Northeast  Level Estimated
Mon 03:50:00 PM 64.8151 -147.8564 49° Northeast  Level Estimated
Mon 03:51:00 PM 64.8151 -147.8564 49° Northeast  Level Estimated
Mon 03:52:00 PM 64.8151 -147.8564 49° Northeast  Level Estimated
Mon 03:53:00 PM 64.8151 -147.8564 49° Northeast  Level Estimated
Mon 03:54:00 PM 64.8151 -147.8564 49° Northeast  Level Estimated
Mon 03:55:00 PM 64.8151 -147.8564 49° Northeast  Level Estimated
Mon 03:56:00 PM 64.8151 -147.8564 49° Northeast  Level Estimated
Mon 03:57:00 PM 64.8151 -147.8564 49° Northeast  Level Estimated
Mon 03:58:00 PM 64.8151 -147.8564 49° Northeast  Level Estimated
Mon 03:59:00 PM 64.8151 -147.8564 49° Northeast  Level Estimated
Mon 04:00:00 PM 64.8151 -147.8564 49° Northeast  Level Estimated

Login

Don't have an account? Register now (free) for customized features, flight alerts, and more!